sensor_id;sensor_type;location;lat;lon;timestamp;pressure;altitude;pressure_sealevel;temperature;humidity
80654;BME280;70020;45.524;10.240;2024-01-10T00:02:19;101263.84;;;10.33;41.77
80654;BME280;70020;45.524;10.240;2024-01-10T00:04:45;101261.41;;;10.30;41.21
80654;BME280;70020;45.524;10.240;2024-01-10T00:07:10;101256.06;;;10.15;40.75
80654;BME280;70020;45.524;10.240;2024-01-10T00:09:36;101260.44;;;10.15;40.89
80654;BME280;70020;45.524;10.240;2024-01-10T00:12:02;101251.97;;;10.11;41.63
80654;BME280;70020;45.524;10.240;2024-01-10T00:14:28;101248.75;;;10.06;41.80
80654;BME280;70020;45.524;10.240;2024-01-10T00:16:54;101250.63;;;10.21;42.31
80654;BME280;70020;45.524;10.240;2024-01-10T00:19:20;101253.56;;;10.14;42.10
80654;BME280;70020;45.524;10.240;2024-01-10T00:21:46;101252.94;;;10.09;41.39
80654;BME280;70020;45.524;10.240;2024-01-10T00:24:12;101253.00;;;10.07;41.28
80654;BME280;70020;45.524;10.240;2024-01-10T00:26:38;101251.88;;;10.13;42.57
80654;BME280;70020;45.524;10.240;2024-01-10T00:29:04;101256.34;;;10.09;43.05
80654;BME280;70020;45.524;10.240;2024-01-10T00:31:30;101247.66;;;10.10;42.71
80654;BME280;70020;45.524;10.240;2024-01-10T00:33:57;101250.22;;;10.12;42.49
80654;BME280;70020;45.524;10.240;2024-01-10T00:36:23;101253.69;;;10.11;41.96
80654;BME280;70020;45.524;10.240;2024-01-10T00:38:49;101244.84;;;10.16;41.41
80654;BME280;70020;45.524;10.240;2024-01-10T00:41:16;101241.53;;;10.13;42.64
80654;BME280;70020;45.524;10.240;2024-01-10T00:43:41;101240.47;;;10.00;41.17
80654;BME280;70020;45.524;10.240;2024-01-10T00:46:07;101248.13;;;10.01;41.75
80654;BME280;70020;45.524;10.240;2024-01-10T00:48:33;101250.88;;;9.98;42.50
80654;BME280;70020;45.524;10.240;2024-01-10T00:50:59;101252.63;;;9.98;43.52
80654;BME280;70020;45.524;10.240;2024-01-10T00:53:25;101255.94;;;9.83;42.10
80654;BME280;70020;45.524;10.240;2024-01-10T00:55:51;101256.88;;;9.82;42.58
80654;BME280;70020;45.524;10.240;2024-01-10T00:58:17;101255.25;;;9.79;43.49
80654;BME280;70020;45.524;10.240;2024-01-10T01:00:43;101261.94;;;9.83;43.43
80654;BME280;70020;45.524;10.240;2024-01-10T01:03:09;101260.88;;;9.87;44.35
80654;BME280;70020;45.524;10.240;2024-01-10T01:05:35;101255.56;;;9.90;44.20
80654;BME280;70020;45.524;10.240;2024-01-10T01:08:02;101259.41;;;10.00;43.42
80654;BME280;70020;45.524;10.240;2024-01-10T01:10:28;101265.38;;;10.01;43.63
80654;BME280;70020;45.524;10.240;2024-01-10T01:12:54;101265.56;;;9.98;43.19
80654;BME280;70020;45.524;10.240;2024-01-10T01:15:20;101266.81;;;9.89;43.01
80654;BME280;70020;45.524;10.240;2024-01-10T01:17:46;101272.59;;;9.94;43.98
80654;BME280;70020;45.524;10.240;2024-01-10T01:20:12;101274.28;;;9.95;43.73
80654;BME280;70020;45.524;10.240;2024-01-10T01:22:38;101265.47;;;9.99;44.59
80654;BME280;70020;45.524;10.240;2024-01-10T01:25:04;101269.16;;;9.94;43.54
80654;BME280;70020;45.524;10.240;2024-01-10T01:27:31;101268.81;;;10.01;43.38
80654;BME280;70020;45.524;10.240;2024-01-10T01:29:58;101273.22;;;9.99;42.59
80654;BME280;70020;45.524;10.240;2024-01-10T01:32:24;101270.00;;;9.94;42.25
80654;BME280;70020;45.524;10.240;2024-01-10T01:34:50;101271.47;;;10.00;43.63
80654;BME280;70020;45.524;10.240;2024-01-10T01:37:16;101275.94;;;9.96;43.25
80654;BME280;70020;45.524;10.240;2024-01-10T01:39:42;101274.28;;;9.95;43.61
80654;BME280;70020;45.524;10.240;2024-01-10T01:42:08;101275.28;;;9.93;43.37
80654;BME280;70020;45.524;10.240;2024-01-10T01:44:34;101284.78;;;9.92;43.88
80654;BME280;70020;45.524;10.240;2024-01-10T01:47:01;101286.38;;;9.95;44.87
80654;BME280;70020;45.524;10.240;2024-01-10T01:49:28;101284.44;;;9.81;42.00
80654;BME280;70020;45.524;10.240;2024-01-10T01:51:55;101291.44;;;9.79;43.26
80654;BME280;70020;45.524;10.240;2024-01-10T01:54:20;101281.47;;;9.72;42.28
80654;BME280;70020;45.524;10.240;2024-01-10T01:56:48;101286.94;;;9.83;43.92
80654;BME280;70020;45.524;10.240;2024-01-10T01:59:14;101291.91;;;9.87;44.05
80654;BME280;70020;45.524;10.240;2024-01-10T02:01:41;101294.03;;;9.96;45.37
80654;BME280;70020;45.524;10.240;2024-01-10T02:04:06;101293.06;;;9.99;44.88
80654;BME280;70020;45.524;10.240;2024-01-10T02:06:32;101292.84;;;10.03;43.81
80654;BME280;70020;45.524;10.240;2024-01-10T02:08:58;101296.13;;;10.07;44.78
80654;BME280;70020;45.524;10.240;2024-01-10T02:11:24;101290.75;;;10.11;45.33
80654;BME280;70020;45.524;10.240;2024-01-10T02:13:50;101292.56;;;10.09;44.29
80654;BME280;70020;45.524;10.240;2024-01-10T02:16:17;101289.03;;;10.10;44.73
80654;BME280;70020;45.524;10.240;2024-01-10T02:18:42;101294.53;;;10.04;43.36
80654;BME280;70020;45.524;10.240;2024-01-10T02:21:08;101301.38;;;10.05;43.44
80654;BME280;70020;45.524;10.240;2024-01-10T02:23:34;101292.16;;;10.00;43.40
80654;BME280;70020;45.524;10.240;2024-01-10T02:26:00;101295.41;;;10.03;44.43
80654;BME280;70020;45.524;10.240;2024-01-10T02:28:26;101292.03;;;10.03;43.88
80654;BME280;70020;45.524;10.240;2024-01-10T02:30:53;101298.22;;;9.99;43.79
80654;BME280;70020;45.524;10.240;2024-01-10T02:33:20;101291.22;;;10.01;44.08
80654;BME280;70020;45.524;10.240;2024-01-10T02:35:46;101285.88;;;10.05;43.67
80654;BME280;70020;45.524;10.240;2024-01-10T02:38:12;101292.47;;;10.11;44.72
80654;BME280;70020;45.524;10.240;2024-01-10T02:40:38;101284.28;;;10.03;44.85
80654;BME280;70020;45.524;10.240;2024-01-10T02:43:04;101285.06;;;10.03;45.02
80654;BME280;70020;45.524;10.240;2024-01-10T02:45:30;101274.38;;;10.11;43.56
80654;BME280;70020;45.524;10.240;2024-01-10T02:47:57;101278.69;;;10.10;43.92
80654;BME280;70020;45.524;10.240;2024-01-10T02:50:23;101280.47;;;10.10;43.94
80654;BME280;70020;45.524;10.240;2024-01-10T02:52:49;101264.72;;;9.97;44.71
80654;BME280;70020;45.524;10.240;2024-01-10T02:55:15;101282.50;;;10.03;44.20
80654;BME280;70020;45.524;10.240;2024-01-10T02:57:47;101280.75;;;10.04;43.02
80654;BME280;70020;45.524;10.240;2024-01-10T03:00:13;101273.97;;;10.01;42.00
80654;BME280;70020;45.524;10.240;2024-01-10T03:02:40;101278.47;;;9.98;42.65
80654;BME280;70020;45.524;10.240;2024-01-10T03:05:07;101278.47;;;9.98;44.20
80654;BME280;70020;45.524;10.240;2024-01-10T03:07:32;101282.34;;;10.06;44.44
80654;BME280;70020;45.524;10.240;2024-01-10T03:09:59;101272.31;;;10.00;42.92
80654;BME280;70020;45.524;10.240;2024-01-10T03:12:25;101270.56;;;10.01;44.05
80654;BME280;70020;45.524;10.240;2024-01-10T03:14:52;101272.38;;;9.99;43.15
80654;BME280;70020;45.524;10.240;2024-01-10T03:17:18;101273.13;;;10.01;42.36
80654;BME280;70020;45.524;10.240;2024-01-10T03:19:44;101274.72;;;9.86;42.51
80654;BME280;70020;45.524;10.240;2024-01-10T03:22:12;101266.75;;;9.91;42.08
80654;BME280;70020;45.524;10.240;2024-01-10T03:24:38;101268.34;;;9.93;42.54
80654;BME280;70020;45.524;10.240;2024-01-10T03:27:04;101272.47;;;9.97;43.20
80654;BME280;70020;45.524;10.240;2024-01-10T03:29:29;101267.22;;;9.99;44.00
80654;BME280;70020;45.524;10.240;2024-01-10T03:31:56;101269.56;;;10.03;45.32
80654;BME280;70020;45.524;10.240;2024-01-10T03:34:22;101266.16;;;10.03;45.09
80654;BME280;70020;45.524;10.240;2024-01-10T03:36:47;101272.00;;;10.06;45.40
80654;BME280;70020;45.524;10.240;2024-01-10T03:39:12;101271.16;;;10.06;45.50
80654;BME280;70020;45.524;10.240;2024-01-10T03:41:39;101269.78;;;9.99;45.70
80654;BME280;70020;45.524;10.240;2024-01-10T03:44:04;101271.34;;;10.03;45.65
80654;BME280;70020;45.524;10.240;2024-01-10T03:46:31;101268.81;;;10.01;45.58
80654;BME280;70020;45.524;10.240;2024-01-10T03:48:57;101269.56;;;10.03;46.03
80654;BME280;70020;45.524;10.240;2024-01-10T03:51:23;101265.19;;;10.05;47.03
80654;BME280;70020;45.524;10.240;2024-01-10T03:53:49;101266.59;;;9.94;44.42
80654;BME280;70020;45.524;10.240;2024-01-10T03:56:15;101266.75;;;9.91;44.75
80654;BME280;70020;45.524;10.240;2024-01-10T03:58:40;101265.56;;;9.98;45.05
80654;BME280;70020;45.524;10.240;2024-01-10T04:01:09;101256.09;;;9.97;45.08
80654;BME280;70020;45.524;10.240;2024-01-10T04:03:35;101264.41;;;9.86;44.96
80654;BME280;70020;45.524;10.240;2024-01-10T04:06:02;101259.63;;;9.77;45.55
80654;BME280;70020;45.524;10.240;2024-01-10T04:08:28;101261.88;;;9.85;46.13
80654;BME280;70020;45.524;10.240;2024-01-10T04:10:54;101266.81;;;9.89;46.84
80654;BME280;70020;45.524;10.240;2024-01-10T04:13:19;101264.41;;;9.86;46.67
80654;BME280;70020;45.524;10.240;2024-01-10T04:15:45;101267.59;;;9.91;46.56
80654;BME280;70020;45.524;10.240;2024-01-10T04:18:12;101259.69;;;9.94;45.28
80654;BME280;70020;45.524;10.240;2024-01-10T04:20:39;101261.19;;;9.81;45.11
80654;BME280;70020;45.524;10.240;2024-01-10T04:23:04;101261.31;;;9.78;46.34
80654;BME280;70020;45.524;10.240;2024-01-10T04:25:30;101268.00;;;9.82;45.97
80654;BME280;70020;45.524;10.240;2024-01-10T04:27:56;101271.66;;;9.78;46.83
80654;BME280;70020;45.524;10.240;2024-01-10T04:30:22;101267.13;;;9.83;46.38
80654;BME280;70020;45.524;10.240;2024-01-10T04:32:48;101262.94;;;9.81;46.21
80654;BME280;70020;45.524;10.240;2024-01-10T04:35:13;101262.75;;;9.67;46.27
80654;BME280;70020;45.524;10.240;2024-01-10T04:37:39;101265.19;;;9.70;45.66
80654;BME280;70020;45.524;10.240;2024-01-10T04:40:06;101262.66;;;9.68;46.83
80654;BME280;70020;45.524;10.240;2024-01-10T04:42:32;101266.94;;;9.69;46.90
80654;BME280;70020;45.524;10.240;2024-01-10T04:44:57;101264.91;;;9.76;46.51
80654;BME280;70020;45.524;10.240;2024-01-10T04:47:23;101265.09;;;9.71;47.22
80654;BME280;70020;45.524;10.240;2024-01-10T04:49:49;101270.06;;;9.76;47.02
80654;BME280;70020;45.524;10.240;2024-01-10T04:52:15;101264.34;;;9.69;47.26
80654;BME280;70020;45.524;10.240;2024-01-10T04:54:40;101259.84;;;9.73;46.90
80654;BME280;70020;45.524;10.240;2024-01-10T04:57:06;101256.28;;;9.75;47.63
80654;BME280;70020;45.524;10.240;2024-01-10T04:59:32;101264.22;;;9.72;47.57
80654;BME280;70020;45.524;10.240;2024-01-10T05:01:58;101264.03;;;9.75;46.79
80654;BME280;70020;45.524;10.240;2024-01-10T05:04:24;101267.78;;;9.70;47.30
80654;BME280;70020;45.524;10.240;2024-01-10T05:06:50;101266.94;;;9.69;46.87
80654;BME280;70020;45.524;10.240;2024-01-10T05:09:16;101272.88;;;9.71;47.01
80654;BME280;70020;45.524;10.240;2024-01-10T05:11:42;101267.63;;;9.73;46.76
80654;BME280;70020;45.524;10.240;2024-01-10T05:14:08;101265.72;;;9.76;45.52
80654;BME280;70020;45.524;10.240;2024-01-10T05:16:34;101268.47;;;9.73;46.04
80654;BME280;70020;45.524;10.240;2024-01-10T05:19:02;101267.50;;;9.57;44.68
80654;BME280;70020;45.524;10.240;2024-01-10T05:21:32;101271.47;;;9.64;45.92
80654;BME280;70020;45.524;10.240;2024-01-10T05:23:58;101283.72;;;9.61;44.84
80654;BME280;70020;45.524;10.240;2024-01-10T05:26:24;101281.63;;;9.50;45.25
80654;BME280;70020;45.524;10.240;2024-01-10T05:28:49;101286.78;;;9.50;45.72
80654;BME280;70020;45.524;10.240;2024-01-10T05:31:15;101290.69;;;9.40;45.90
80654;BME280;70020;45.524;10.240;2024-01-10T05:33:41;101293.13;;;9.43;46.07
80654;BME280;70020;45.524;10.240;2024-01-10T05:36:08;101289.44;;;9.48;46.70
80654;BME280;70020;45.524;10.240;2024-01-10T05:38:37;101297.75;;;9.55;46.38
80654;BME280;70020;45.524;10.240;2024-01-10T05:41:03;101296.34;;;9.48;46.06
80654;BME280;70020;45.524;10.240;2024-01-10T05:43:29;101293.63;;;9.51;46.47
80654;BME280;70020;45.524;10.240;2024-01-10T05:45:55;101294.03;;;9.42;45.48
80654;BME280;70020;45.524;10.240;2024-01-10T05:48:20;101299.78;;;9.48;45.49
80654;BME280;70020;45.524;10.240;2024-01-10T05:50:46;101296.47;;;9.45;46.30
80654;BME280;70020;45.524;10.240;2024-01-10T05:53:12;101303.81;;;9.54;45.60
80654;BME280;70020;45.524;10.240;2024-01-10T05:55:42;101308.13;;;9.53;46.12
80654;BME280;70020;45.524;10.240;2024-01-10T05:58:09;101304.88;;;9.50;46.97
80654;BME280;70020;45.524;10.240;2024-01-10T06:00:35;101310.66;;;9.55;45.88
80654;BME280;70020;45.524;10.240;2024-01-10T06:03:00;101310.59;;;9.56;45.23
80654;BME280;70020;45.524;10.240;2024-01-10T06:05:26;101318.06;;;9.63;45.57
80654;BME280;70020;45.524;10.240;2024-01-10T06:07:52;101314.34;;;9.49;44.36
80654;BME280;70020;45.524;10.240;2024-01-10T06:10:18;101321.84;;;9.37;44.42
80654;BME280;70020;45.524;10.240;2024-01-10T06:12:44;101314.56;;;9.45;44.67
80654;BME280;70020;45.524;10.240;2024-01-10T06:15:10;101320.16;;;9.54;44.98
80654;BME280;70020;45.524;10.240;2024-01-10T06:17:37;101324.69;;;9.49;44.23
80654;BME280;70020;45.524;10.240;2024-01-10T06:20:03;101328.53;;;9.59;44.80
80654;BME280;70020;45.524;10.240;2024-01-10T06:22:29;101332.09;;;9.76;45.31
80654;BME280;70020;45.524;10.240;2024-01-10T06:24:55;101324.19;;;9.79;44.28
80654;BME280;70020;45.524;10.240;2024-01-10T06:27:21;101328.53;;;9.78;44.37
80654;BME280;70020;45.524;10.240;2024-01-10T06:29:47;101319.16;;;9.76;44.03
80654;BME280;70020;45.524;10.240;2024-01-10T06:32:12;101320.28;;;9.70;44.67
80654;BME280;70020;45.524;10.240;2024-01-10T06:34:39;101325.44;;;9.70;44.23
80654;BME280;70020;45.524;10.240;2024-01-10T06:37:05;101324.47;;;9.73;44.95
80654;BME280;70020;45.524;10.240;2024-01-10T06:39:32;101328.81;;;9.72;44.50
80654;BME280;70020;45.524;10.240;2024-01-10T06:41:58;101325.75;;;9.64;45.04
80654;BME280;70020;45.524;10.240;2024-01-10T06:44:24;101329.81;;;9.51;44.62
80654;BME280;70020;45.524;10.240;2024-01-10T06:46:50;101335.41;;;9.22;44.81
80654;BME280;70020;45.524;10.240;2024-01-10T06:49:16;101339.97;;;9.35;46.46
80654;BME280;70020;45.524;10.240;2024-01-10T06:51:41;101352.75;;;9.38;45.67
80654;BME280;70020;45.524;10.240;2024-01-10T06:54:07;101345.56;;;9.45;45.85
80654;BME280;70020;45.524;10.240;2024-01-10T06:56:33;101339.53;;;9.44;45.94
80654;BME280;70020;45.524;10.240;2024-01-10T06:58:59;101349.25;;;9.39;44.61
80654;BME280;70020;45.524;10.240;2024-01-10T07:01:26;101355.25;;;9.40;45.81
80654;BME280;70020;45.524;10.240;2024-01-10T07:03:52;101357.00;;;9.39;45.55
80654;BME280;70020;45.524;10.240;2024-01-10T07:06:18;101360.06;;;9.29;45.18
80654;BME280;70020;45.524;10.240;2024-01-10T07:08:44;101357.69;;;9.24;45.44
80654;BME280;70020;45.524;10.240;2024-01-10T07:11:10;101359.50;;;9.22;44.81
80654;BME280;70020;45.524;10.240;2024-01-10T07:13:40;101370.72;;;9.21;45.16
80654;BME280;70020;45.524;10.240;2024-01-10T07:16:06;101364.91;;;9.16;45.00
80654;BME280;70020;45.524;10.240;2024-01-10T07:18:32;101369.69;;;9.25;46.26
80654;BME280;70020;45.524;10.240;2024-01-10T07:20:58;101370.47;;;9.27;45.81
80654;BME280;70020;45.524;10.240;2024-01-10T07:23:23;101374.91;;;9.24;46.40
80654;BME280;70020;45.524;10.240;2024-01-10T07:25:49;101381.50;;;9.31;46.58
80654;BME280;70020;45.524;10.240;2024-01-10T07:28:16;101389.97;;;9.34;46.60
80654;BME280;70020;45.524;10.240;2024-01-10T07:30:41;101387.94;;;9.41;46.65
80654;BME280;70020;45.524;10.240;2024-01-10T07:33:07;101391.41;;;9.40;47.34
80654;BME280;70020;45.524;10.240;2024-01-10T07:35:33;101397.34;;;9.42;46.80
80654;BME280;70020;45.524;10.240;2024-01-10T07:37:59;101393.75;;;9.46;47.13
80654;BME280;70020;45.524;10.240;2024-01-10T07:40:25;101404.84;;;9.48;47.34
80654;BME280;70020;45.524;10.240;2024-01-10T07:42:50;101406.16;;;9.56;48.01
80654;BME280;70020;45.524;10.240;2024-01-10T07:45:16;101399.91;;;9.62;48.50
80654;BME280;70020;45.524;10.240;2024-01-10T07:47:42;101405.31;;;9.56;48.39
80654;BME280;70020;45.524;10.240;2024-01-10T07:50:08;101411.28;;;9.58;48.65
80654;BME280;70020;45.524;10.240;2024-01-10T07:52:34;101410.09;;;9.65;48.81
80654;BME280;70020;45.524;10.240;2024-01-10T07:55:00;101410.59;;;9.73;48.25
80654;BME280;70020;45.524;10.240;2024-01-10T07:57:29;101413.25;;;9.72;48.01
80654;BME280;70020;45.524;10.240;2024-01-10T07:59:55;101413.50;;;9.66;47.37
80654;BME280;70020;45.524;10.240;2024-01-10T08:02:21;101411.72;;;9.68;47.73
80654;BME280;70020;45.524;10.240;2024-01-10T08:04:47;101413.69;;;9.81;47.27
80654;BME280;70020;45.524;10.240;2024-01-10T08:07:13;101421.78;;;9.92;48.51
80654;BME280;70020;45.524;10.240;2024-01-10T08:09:38;101409.69;;;9.93;48.55
80654;BME280;70020;45.524;10.240;2024-01-10T08:12:08;101417.38;;;9.94;46.76
80654;BME280;70020;45.524;10.240;2024-01-10T08:14:34;101420.03;;;9.74;45.86
80654;BME280;70020;45.524;10.240;2024-01-10T08:16:59;101417.16;;;9.80;47.54
80654;BME280;70020;45.524;10.240;2024-01-10T08:19:29;101425.50;;;10.05;47.96
80654;BME280;70020;45.524;10.240;2024-01-10T08:21:55;101421.09;;;10.07;47.11
80654;BME280;70020;45.524;10.240;2024-01-10T08:24:21;101432.09;;;10.12;45.74
80654;BME280;70020;45.524;10.240;2024-01-10T08:26:48;101423.41;;;10.13;46.75
80654;BME280;70020;45.524;10.240;2024-01-10T08:29:20;101432.50;;;10.22;45.71
80654;BME280;70020;45.524;10.240;2024-01-10T08:31:46;101432.97;;;10.30;46.29
80654;BME280;70020;45.524;10.240;2024-01-10T08:34:12;101429.63;;;10.28;46.13
80654;BME280;70020;45.524;10.240;2024-01-10T08:36:37;101434.69;;;10.30;45.69
80654;BME280;70020;45.524;10.240;2024-01-10T08:39:03;101431.75;;;10.37;45.17
80654;BME280;70020;45.524;10.240;2024-01-10T08:41:30;101434.88;;;10.44;45.37
80654;BME280;70020;45.524;10.240;2024-01-10T08:43:56;101437.78;;;10.38;44.40
80654;BME280;70020;45.524;10.240;2024-01-10T08:46:22;101440.16;;;10.42;44.24
80654;BME280;70020;45.524;10.240;2024-01-10T08:48:47;101451.25;;;10.44;44.30
80654;BME280;70020;45.524;10.240;2024-01-10T08:51:13;101449.50;;;10.45;44.25
80654;BME280;70020;45.524;10.240;2024-01-10T08:53:42;101451.97;;;10.48;44.40
80654;BME280;70020;45.524;10.240;2024-01-10T08:56:09;101457.28;;;10.45;44.14
80654;BME280;70020;45.524;10.240;2024-01-10T08:58:35;101452.66;;;10.33;44.52
80654;BME280;70020;45.524;10.240;2024-01-10T09:01:04;101457.19;;;10.46;45.26
80654;BME280;70020;45.524;10.240;2024-01-10T09:03:30;101461.38;;;10.49;44.07
80654;BME280;70020;45.524;10.240;2024-01-10T09:05:56;101469.16;;;10.49;44.12
80654;BME280;70020;45.524;10.240;2024-01-10T09:08:22;101477.44;;;10.55;43.44
80654;BME280;70020;45.524;10.240;2024-01-10T09:10:53;101471.28;;;10.58;44.43
80654;BME280;70020;45.524;10.240;2024-01-10T09:13:20;101475.66;;;10.57;43.78
80654;BME280;70020;45.524;10.240;2024-01-10T09:15:46;101473.28;;;10.53;44.63
80654;BME280;70020;45.524;10.240;2024-01-10T09:18:11;101472.09;;;10.41;44.16
80654;BME280;70020;45.524;10.240;2024-01-10T09:20:37;101475.50;;;10.60;43.79
80654;BME280;70020;45.524;10.240;2024-01-10T09:23:03;101462.31;;;10.65;44.44
80654;BME280;70020;45.524;10.240;2024-01-10T09:25:29;101480.63;;;10.79;43.28
80654;BME280;70020;45.524;10.240;2024-01-10T09:27:55;101481.31;;;10.82;43.02
80654;BME280;70020;45.524;10.240;2024-01-10T09:30:21;101486.41;;;10.84;43.36
80654;BME280;70020;45.524;10.240;2024-01-10T09:32:47;101480.03;;;10.91;43.19
80654;BME280;70020;45.524;10.240;2024-01-10T09:35:13;101490.34;;;10.92;43.13
80654;BME280;70020;45.524;10.240;2024-01-10T09:37:39;101487.78;;;10.91;42.58
80654;BME280;70020;45.524;10.240;2024-01-10T09:40:05;101488.63;;;10.91;41.68
80654;BME280;70020;45.524;10.240;2024-01-10T09:42:35;101490.72;;;11.02;42.28
80654;BME280;70020;45.524;10.240;2024-01-10T09:45:03;101490.25;;;11.11;41.93
80654;BME280;70020;45.524;10.240;2024-01-10T09:47:31;101488.44;;;11.13;41.66
80654;BME280;70020;45.524;10.240;2024-01-10T09:49:59;101493.25;;;11.21;42.06
80654;BME280;70020;45.524;10.240;2024-01-10T09:52:27;101488.50;;;11.12;40.84
80654;BME280;70020;45.524;10.240;2024-01-10T09:54:57;101484.75;;;11.17;41.77
80654;BME280;70020;45.524;10.240;2024-01-10T09:57:24;101489.78;;;11.03;41.53
80654;BME280;70020;45.524;10.240;2024-01-10T09:59:51;101482.78;;;11.05;41.72
80654;BME280;70020;45.524;10.240;2024-01-10T10:02:17;101480.28;;;11.04;41.98
80654;BME280;70020;45.524;10.240;2024-01-10T10:05:02;101487.56;;;10.95;41.83
80654;BME280;70020;45.524;10.240;2024-01-10T10:07:29;101486.44;;;11.01;41.80
80654;BME280;70020;45.524;10.240;2024-01-10T10:09:55;101483.84;;;11.01;43.45
80654;BME280;70020;45.524;10.240;2024-01-10T10:12:41;101491.03;;;11.13;42.29
80654;BME280;70020;45.524;10.240;2024-01-10T10:15:16;101485.31;;;11.24;42.22
80654;BME280;70020;45.524;10.240;2024-01-10T10:17:44;101486.00;;;11.27;41.71
80654;BME280;70020;45.524;10.240;2024-01-10T10:20:26;101483.53;;;11.24;41.79
80654;BME280;70020;45.524;10.240;2024-01-10T10:23:11;101482.94;;;11.19;41.56
80654;BME280;70020;45.524;10.240;2024-01-10T10:25:45;101485.84;;;11.30;41.68
80654;BME280;70020;45.524;10.240;2024-01-10T10:28:11;101473.50;;;11.18;41.13
80654;BME280;70020;45.524;10.240;2024-01-10T10:30:37;101472.75;;;11.16;40.97
80654;BME280;70020;45.524;10.240;2024-01-10T10:33:03;101473.13;;;11.26;40.80
80654;BME280;70020;45.524;10.240;2024-01-10T10:35:29;101472.88;;;11.30;40.89
80654;BME280;70020;45.524;10.240;2024-01-10T10:37:55;101466.09;;;11.45;42.06
80654;BME280;70020;45.524;10.240;2024-01-10T10:40:21;101465.75;;;11.51;40.98
80654;BME280;70020;45.524;10.240;2024-01-10T10:42:57;101468.75;;;11.43;41.04
80654;BME280;70020;45.524;10.240;2024-01-10T10:45:23;101470.69;;;11.23;39.76
80654;BME280;70020;45.524;10.240;2024-01-10T10:47:59;101465.63;;;11.54;40.75
80654;BME280;70020;45.524;10.240;2024-01-10T10:50:33;101463.03;;;11.54;39.66
80654;BME280;70020;45.524;10.240;2024-01-10T10:53:00;101460.50;;;11.52;40.20
80654;BME280;70020;45.524;10.240;2024-01-10T10:55:28;101459.00;;;11.31;39.03
80654;BME280;70020;45.524;10.240;2024-01-10T10:57:54;101452.19;;;11.46;39.40
80654;BME280;70020;45.524;10.240;2024-01-10T11:00:21;101457.31;;;11.47;39.76
80654;BME280;70020;45.524;10.240;2024-01-10T11:02:53;101463.09;;;11.52;39.40
80654;BME280;70020;45.524;10.240;2024-01-10T11:05:20;101454.66;;;11.49;40.32
80654;BME280;70020;45.524;10.240;2024-01-10T11:07:46;101451.44;;;11.44;40.66
80654;BME280;70020;45.524;10.240;2024-01-10T11:10:22;101454.38;;;11.38;40.47
80654;BME280;70020;45.524;10.240;2024-01-10T11:15:52;101447.53;;;11.52;40.87
80654;BME280;70020;45.524;10.240;2024-01-10T11:21:28;101433.66;;;11.71;39.99
80654;BME280;70020;45.524;10.240;2024-01-10T11:23:59;101436.06;;;11.74;39.34
80654;BME280;70020;45.524;10.240;2024-01-10T11:26:26;101433.16;;;11.80;41.07
80654;BME280;70020;45.524;10.240;2024-01-10T11:28:52;101434.25;;;11.76;39.31
80654;BME280;70020;45.524;10.240;2024-01-10T11:31:30;101435.19;;;11.90;39.10
80654;BME280;70020;45.524;10.240;2024-01-10T11:33:58;101435.75;;;11.80;39.51
80654;BME280;70020;45.524;10.240;2024-01-10T11:36:24;101433.81;;;11.83;40.08
80654;BME280;70020;45.524;10.240;2024-01-10T11:41:30;101427.25;;;11.78;39.84
80654;BME280;70020;45.524;10.240;2024-01-10T11:46:41;101424.03;;;11.73;40.37
80654;BME280;70020;45.524;10.240;2024-01-10T11:49:07;101420.38;;;11.77;40.19
80654;BME280;70020;45.524;10.240;2024-01-10T11:51:35;101424.13;;;11.71;41.74
80654;BME280;70020;45.524;10.240;2024-01-10T11:54:04;101414.13;;;11.63;40.27
80654;BME280;70020;45.524;10.240;2024-01-10T11:56:42;101415.44;;;11.72;40.36
80654;BME280;70020;45.524;10.240;2024-01-10T11:59:16;101409.59;;;11.51;41.09
80654;BME280;70020;45.524;10.240;2024-01-10T12:01:43;101408.34;;;11.58;41.77
80654;BME280;70020;45.524;10.240;2024-01-10T12:04:09;101404.00;;;11.59;39.80
80654;BME280;70020;45.524;10.240;2024-01-10T12:06:36;101402.31;;;11.58;40.07
80654;BME280;70020;45.524;10.240;2024-01-10T12:09:03;101401.63;;;11.72;40.50
80654;BME280;70020;45.524;10.240;2024-01-10T12:11:36;101399.03;;;11.72;40.17
80654;BME280;70020;45.524;10.240;2024-01-10T12:14:04;101393.66;;;11.59;40.61
80654;BME280;70020;45.524;10.240;2024-01-10T12:16:32;101384.47;;;11.36;41.08
80654;BME280;70020;45.524;10.240;2024-01-10T12:18:58;101393.53;;;11.45;41.42
80654;BME280;70020;45.524;10.240;2024-01-10T12:21:24;101388.03;;;11.67;41.19
80654;BME280;70020;45.524;10.240;2024-01-10T12:23:50;101387.22;;;11.66;40.04
80654;BME280;70020;45.524;10.240;2024-01-10T12:26:16;101383.44;;;11.56;40.92
80654;BME280;70020;45.524;10.240;2024-01-10T12:28:56;101381.50;;;11.59;41.10
80654;BME280;70020;45.524;10.240;2024-01-10T12:31:23;101385.75;;;11.78;42.12
80654;BME280;70020;45.524;10.240;2024-01-10T12:33:50;101384.00;;;11.78;40.18
80654;BME280;70020;45.524;10.240;2024-01-10T12:36:17;101378.66;;;11.48;39.65
80654;BME280;70020;45.524;10.240;2024-01-10T12:38:43;101375.25;;;11.63;39.63
80654;BME280;70020;45.524;10.240;2024-01-10T12:41:09;101376.53;;;11.72;40.49
80654;BME280;70020;45.524;10.240;2024-01-10T12:43:36;101370.94;;;11.80;39.61
80654;BME280;70020;45.524;10.240;2024-01-10T12:46:06;101372.31;;;11.54;39.67
80654;BME280;70020;45.524;10.240;2024-01-10T12:48:31;101370.59;;;11.37;39.60
80654;BME280;70020;45.524;10.240;2024-01-10T12:50:58;101363.38;;;11.27;39.54
80654;BME280;70020;45.524;10.240;2024-01-10T12:53:28;101364.38;;;11.24;39.84
80654;BME280;70020;45.524;10.240;2024-01-10T12:55:55;101363.84;;;11.35;41.45